Time;durP1;ratioP1;P1;durP2;ratioP2;P2;SDS_P1;SDS_P2;PMS_P1;PMS_P2;Temp;Humidity;BMP_temperature;BMP_pressure;BME280_temperature;BME280_humidity;BME280_pressure;Samples;Min_cycle;Max_cycle;Signal;HPM_P1;HPM_P2
2022/10/11 00:00:14;;;;;;;7.80;5.63;;;11.70;99.90;;;;;;5064062;28;20062;-40
2022/10/11 00:02:40;;;;;;;9.50;5.28;;;11.70;99.90;;;;;;5067357;28;20504;-33
2022/10/11 00:05:06;;;;;;;7.95;4.97;;;11.80;99.90;;;;;;5065183;28;20028;-38
2022/10/11 00:07:32;;;;;;;6.40;5.25;;;11.80;99.90;;;;;;5062717;28;20028;-36
2022/10/11 00:09:58;;;;;;;9.75;6.32;;;11.80;99.90;;;;;;5064757;28;20032;-39
2022/10/11 00:12:23;;;;;;;6.95;5.18;;;11.80;99.90;;;;;;5063359;28;20024;-38
2022/10/11 00:14:49;;;;;;;7.63;5.55;;;11.90;99.90;;;;;;5065136;28;20074;-35
2022/10/11 00:17:14;;;;;;;7.97;6.10;;;11.90;99.90;;;;;;5051224;28;20413;-37
2022/10/11 00:19:40;;;;;;;9.77;6.47;;;11.90;99.90;;;;;;5061814;28;20694;-39
2022/10/11 00:22:06;;;;;;;8.82;5.93;;;12.00;99.90;;;;;;5064994;28;20017;-36
2022/10/11 00:24:31;;;;;;;7.32;5.47;;;12.00;99.90;;;;;;5065825;28;20028;-38
2022/10/11 00:26:57;;;;;;;10.75;5.18;;;12.00;99.90;;;;;;5066817;28;20039;-29
2022/10/11 00:29:23;;;;;;;8.27;4.93;;;12.10;99.90;;;;;;5063894;28;20041;-35
2022/10/11 00:31:48;;;;;;;7.38;5.13;;;12.10;99.90;;;;;;5065267;28;20102;-38
2022/10/11 00:34:16;;;;;;;7.93;5.97;;;12.10;99.90;;;;;;5065098;28;20028;-37
2022/10/11 00:36:43;;;;;;;9.02;5.47;;;12.10;99.90;;;;;;5064189;28;20115;-37
2022/10/11 00:39:09;;;;;;;9.07;6.38;;;12.00;99.90;;;;;;5065823;28;20036;-38
2022/10/11 00:41:34;;;;;;;6.15;5.10;;;11.90;99.90;;;;;;5061929;28;20024;-38
2022/10/11 00:44:12;;;;;;;6.95;4.63;;;11.80;99.90;;;;;;5065975;28;20063;-39
2022/10/11 00:46:39;;;;;;;7.77;4.57;;;11.80;99.90;;;;;;5065558;28;20028;-38
2022/10/11 00:49:18;;;;;;;17.80;9.52;;;11.90;99.90;;;;;;5062231;28;22158;-38
2022/10/11 00:51:52;;;;;;;21.10;9.35;;;11.90;99.90;;;;;;5066352;28;20086;-39
2022/10/11 00:54:22;;;;;;;13.65;7.22;;;11.90;99.90;;;;;;5076363;28;20147;-39
2022/10/11 00:56:55;;;;;;;8.52;5.70;;;12.00;99.90;;;;;;5066270;28;20035;-38
2022/10/11 00:59:24;;;;;;;10.45;5.15;;;12.00;99.90;;;;;;5065412;28;20134;-37
2022/10/11 01:01:50;;;;;;;7.82;5.57;;;11.90;99.90;;;;;;5064624;28;20120;-28
2022/10/11 01:04:16;;;;;;;8.65;5.18;;;11.90;99.90;;;;;;5065681;28;20111;-30
2022/10/11 01:06:42;;;;;;;8.75;5.65;;;11.90;99.90;;;;;;5063723;28;20115;-30
2022/10/11 01:09:09;;;;;;;8.32;5.38;;;11.80;99.90;;;;;;5061162;28;20066;-29
2022/10/11 01:11:38;;;;;;;5.35;4.57;;;11.90;99.90;;;;;;5065034;28;20056;-32
2022/10/11 01:14:20;;;;;;;6.32;5.28;;;11.80;99.90;;;;;;5066002;28;20074;-30
2022/10/11 01:17:01;;;;;;;9.40;5.55;;;11.70;99.90;;;;;;5065798;28;20094;-30
2022/10/11 01:19:48;;;;;;;7.60;4.78;;;11.70;99.90;;;;;;5063223;28;20040;-30
2022/10/11 01:22:42;;;;;;;9.13;5.38;;;11.70;99.90;;;;;;5063981;28;20028;-35
2022/10/11 01:25:34;;;;;;;8.25;5.13;;;11.80;99.90;;;;;;5062266;28;20028;-30
2022/10/11 01:28:09;;;;;;;5.70;4.35;;;11.70;99.90;;;;;;5066325;28;20035;-29
2022/10/11 01:30:36;;;;;;;9.60;5.18;;;11.50;99.90;;;;;;5064621;28;20035;-36
2022/10/11 01:33:20;;;;;;;7.35;4.32;;;11.30;99.90;;;;;;5066355;28;20627;-36
2022/10/11 01:35:59;;;;;;;7.65;4.60;;;11.30;99.90;;;;;;5064370;28;20037;-32
2022/10/11 01:38:42;;;;;;;6.60;4.20;;;11.40;99.90;;;;;;5062956;28;20035;-30
2022/10/11 01:41:30;;;;;;;7.43;4.70;;;11.40;99.90;;;;;;5063330;28;20028;-32
2022/10/11 01:43:59;;;;;;;;;;;11.20;99.90;;;;;;5062875;28;20550;-31
2022/10/11 01:46:27;;;;;;;6.65;4.43;;;11.20;99.90;;;;;;5068405;28;20444;-30
2022/10/11 01:48:55;;;;;;;5.40;4.10;;;11.30;99.90;;;;;;5064444;28;20094;-35
2022/10/11 01:51:26;;;;;;;;;;;11.30;99.90;;;;;;5065968;28;20032;-31
2022/10/11 01:54:14;;;;;;;5.80;4.25;;;11.30;99.90;;;;;;5067044;28;19986;-31
2022/10/11 01:57:05;;;;;;;6.18;4.20;;;11.40;99.90;;;;;;5068047;28;20804;-30
2022/10/11 01:59:49;;;;;;;8.50;4.75;;;11.40;99.90;;;;;;5062414;28;20044;-33
2022/10/11 02:02:31;;;;;;;5.07;4.57;;;11.50;99.90;;;;;;5079645;28;20493;-31
2022/10/11 02:05:17;;;;;;;6.97;4.93;;;11.50;99.90;;;;;;5086536;28;20077;-33
2022/10/11 02:07:58;;;;;;;5.95;4.75;;;11.60;99.90;;;;;;5081459;28;20089;-32
2022/10/11 02:10:36;;;;;;;9.02;5.05;;;11.50;99.90;;;;;;5084429;28;20497;-31
2022/10/11 02:13:01;;;;;;;6.22;4.82;;;11.60;99.90;;;;;;5082511;28;20046;-30
2022/10/11 02:15:30;;;;;;;7.03;5.07;;;11.60;99.90;;;;;;5082562;28;20031;-31
2022/10/11 02:17:59;;;;;;;7.05;5.30;;;11.60;99.90;;;;;;5082382;28;20586;-32
2022/10/11 02:20:29;;;;;;;9.18;4.47;;;11.60;99.90;;;;;;5080465;28;20062;-33
2022/10/11 02:23:02;;;;;;;6.35;4.68;;;11.50;99.90;;;;;;5088000;28;20035;-31
2022/10/11 02:25:33;;;;;;;6.95;4.53;;;11.40;99.90;;;;;;5084301;28;20521;-31
2022/10/11 02:28:02;;;;;;;6.50;4.55;;;11.40;99.90;;;;;;5084782;28;20056;-33
2022/10/11 02:30:29;;;;;;;6.38;5.05;;;11.30;99.90;;;;;;5082583;28;20043;-33
2022/10/11 02:32:56;;;;;;;9.65;5.20;;;11.40;99.90;;;;;;5084156;28;20024;-30
2022/10/11 02:35:25;;;;;;;8.40;4.63;;;11.40;99.90;;;;;;5084010;28;20042;-31
2022/10/11 02:38:26;;;;;;;6.93;5.05;;;11.50;99.90;;;;;;5086692;28;20040;-30
2022/10/11 02:41:01;;;;;;;5.80;4.65;;;11.50;99.90;;;;;;5083713;28;20813;-30
2022/10/11 02:43:38;;;;;;;9.25;4.47;;;11.50;99.90;;;;;;5083478;28;20069;-37
2022/10/11 02:46:06;;;;;;;6.47;4.18;;;11.60;99.90;;;;;;5082240;28;20039;-36
2022/10/11 02:48:32;;;;;;;5.72;4.95;;;11.60;99.90;;;;;;5082954;28;20028;-30
2022/10/11 02:50:58;;;;;;;8.45;4.85;;;11.50;99.90;;;;;;5078553;28;20040;-33
2022/10/11 02:53:25;;;;;;;8.02;4.32;;;11.50;99.90;;;;;;5083505;28;20088;-34
2022/10/11 02:55:52;;;;;;;8.87;5.17;;;11.60;99.90;;;;;;5084339;28;20031;-32
2022/10/11 02:58:18;;;;;;;6.25;4.40;;;11.50;99.90;;;;;;5086447;28;20056;-32
2022/10/11 03:00:44;;;;;;;5.43;4.07;;;11.50;99.90;;;;;;5082046;28;20050;-30
2022/10/11 03:03:10;;;;;;;7.40;4.45;;;11.60;99.90;;;;;;5086493;28;20103;-31
2022/10/11 03:05:39;;;;;;;5.40;3.90;;;11.60;99.90;;;;;;5083366;28;20983;-30
2022/10/11 03:08:06;;;;;;;6.57;4.25;;;11.60;99.90;;;;;;5083239;28;20082;-32
2022/10/11 03:10:33;;;;;;;7.30;4.28;;;11.60;99.90;;;;;;5085401;28;20024;-33
2022/10/11 03:12:59;;;;;;;8.25;5.53;;;11.60;99.90;;;;;;5085616;28;20023;-30
2022/10/11 03:15:24;;;;;;;8.43;4.75;;;11.60;99.90;;;;;;5078506;28;20999;-31
2022/10/11 03:17:50;;;;;;;16.27;7.85;;;11.60;99.90;;;;;;5084207;28;20381;-31
2022/10/11 03:20:16;;;;;;;10.60;6.88;;;11.60;99.90;;;;;;5081628;28;20103;-31
2022/10/11 03:22:41;;;;;;;13.93;7.40;;;11.60;99.90;;;;;;5089038;28;20032;-30
2022/10/11 03:25:07;;;;;;;11.23;6.72;;;11.60;99.90;;;;;;5082935;28;20024;-32
2022/10/11 03:27:33;;;;;;;21.52;10.38;;;11.70;99.90;;;;;;5088628;28;20035;-30
2022/10/11 03:29:59;;;;;;;10.63;6.82;;;11.60;99.90;;;;;;5085560;28;20704;-29
2022/10/11 03:32:25;;;;;;;17.30;8.40;;;11.60;99.90;;;;;;5086460;28;20074;-33
2022/10/11 03:34:51;;;;;;;10.00;5.35;;;11.70;99.90;;;;;;5086630;28;20035;-31
2022/10/11 03:37:17;;;;;;;26.60;10.85;;;11.70;99.90;;;;;;5084723;28;20082;-31
2022/10/11 03:39:44;;;;;;;9.73;5.82;;;11.60;99.90;;;;;;5091718;28;20032;-31
2022/10/11 03:42:10;;;;;;;59.88;21.75;;;11.50;99.90;;;;;;5088640;28;20031;-35
2022/10/11 03:44:37;;;;;;;10.32;7.05;;;11.50;99.90;;;;;;5086367;28;20031;-31
2022/10/11 03:47:03;;;;;;;11.80;5.40;;;11.50;99.90;;;;;;5086753;28;20032;-31
2022/10/11 03:49:29;;;;;;;9.75;5.38;;;11.60;99.90;;;;;;5085470;28;20552;-32
2022/10/11 03:51:54;;;;;;;26.95;11.18;;;11.60;99.90;;;;;;5085819;28;20035;-32
2022/10/11 03:54:20;;;;;;;11.48;6.45;;;11.60;99.90;;;;;;5084917;28;20107;-33
2022/10/11 03:56:46;;;;;;;8.02;4.95;;;11.60;99.90;;;;;;5087204;28;20024;-34
2022/10/11 03:59:12;;;;;;;7.18;4.78;;;11.60;99.90;;;;;;5085023;27;20093;-30
2022/10/11 04:01:37;;;;;;;7.53;4.13;;;11.50;99.90;;;;;;5085165;28;20102;-31
2022/10/11 04:04:04;;;;;;;7.75;4.38;;;11.40;99.90;;;;;;5084080;28;20139;-36
2022/10/11 04:06:30;;;;;;;4.88;3.88;;;11.30;99.90;;;;;;5087102;28;21562;-31
2022/10/11 04:08:56;;;;;;;6.90;3.42;;;11.20;99.90;;;;;;5085947;28;20039;-30
2022/10/11 04:11:22;;;;;;;6.65;4.03;;;11.10;99.90;;;;;;5086092;28;20028;-30
2022/10/11 04:13:47;;;;;;;6.43;3.97;;;11.20;99.90;;;;;;5085554;28;21092;-31
2022/10/11 04:16:13;;;;;;;9.32;4.13;;;11.20;99.90;;;;;;5087662;28;20043;-30
2022/10/11 04:18:39;;;;;;;10.43;4.22;;;11.30;99.90;;;;;;5086177;28;20032;-31
2022/10/11 04:21:05;;;;;;;6.00;4.00;;;11.30;99.90;;;;;;5084654;28;20028;-30
2022/10/11 04:23:31;;;;;;;6.07;4.22;;;11.40;99.90;;;;;;5088290;28;20830;-30
2022/10/11 04:25:57;;;;;;;4.63;3.72;;;11.40;99.90;;;;;;5084862;28;20620;-30
2022/10/11 04:28:23;;;;;;;6.97;4.68;;;11.50;99.90;;;;;;5087548;28;20032;-30
2022/10/11 04:30:49;;;;;;;7.25;4.28;;;11.50;99.90;;;;;;5088770;28;20031;-35
2022/10/11 04:33:15;;;;;;;6.40;4.10;;;11.50;99.90;;;;;;5083416;28;20381;-31
2022/10/11 04:35:40;;;;;;;5.95;4.50;;;11.50;99.90;;;;;;5085413;28;20020;-33
2022/10/11 04:38:06;;;;;;;6.63;4.22;;;11.60;99.90;;;;;;5087445;28;20668;-31
2022/10/11 04:40:32;;;;;;;7.38;4.20;;;11.60;99.90;;;;;;5089362;28;20482;-30
2022/10/11 04:42:57;;;;;;;6.80;4.15;;;11.70;99.90;;;;;;5086501;28;20031;-34
2022/10/11 04:45:23;;;;;;;8.95;4.45;;;11.70;99.90;;;;;;5088312;28;20028;-31
2022/10/11 04:47:49;;;;;;;5.65;4.30;;;11.70;99.90;;;;;;5086138;28;20030;-30
2022/10/11 04:50:14;;;;;;;5.05;4.00;;;11.70;99.90;;;;;;5087609;28;20052;-30
2022/10/11 04:52:40;;;;;;;7.18;4.50;;;11.70;99.90;;;;;;5083999;28;20020;-34
2022/10/11 04:55:06;;;;;;;8.02;4.30;;;11.80;99.90;;;;;;5087113;28;20031;-32
2022/10/11 04:57:32;;;;;;;5.20;4.30;;;11.80;99.90;;;;;;5085238;28;20048;-32
2022/10/11 04:59:58;;;;;;;4.78;3.80;;;11.80;99.90;;;;;;5082592;28;20068;-31
2022/10/11 05:02:23;;;;;;;5.75;4.30;;;11.80;99.90;;;;;;5085883;28;20020;-33
2022/10/11 05:04:50;;;;;;;8.02;4.80;;;11.80;99.90;;;;;;5084944;28;20498;-31
2022/10/11 05:07:15;;;;;;;5.53;4.05;;;11.90;99.90;;;;;;5085372;28;20073;-36
2022/10/11 05:09:41;;;;;;;5.97;4.40;;;11.90;99.90;;;;;;5084253;28;20493;-31
2022/10/11 05:12:07;;;;;;;6.82;3.83;;;11.90;99.90;;;;;;5082171;28;20119;-31
2022/10/11 05:14:32;;;;;;;9.65;5.00;;;11.90;99.90;;;;;;5085086;28;20024;-33
2022/10/11 05:16:58;;;;;;;7.30;4.53;;;11.90;99.90;;;;;;5080914;28;20032;-31
2022/10/11 05:19:23;;;;;;;5.82;4.07;;;11.90;99.90;;;;;;5083666;28;20032;-33
2022/10/11 05:21:49;;;;;;;4.85;3.97;;;11.90;99.90;;;;;;5083655;28;20036;-31
2022/10/11 05:24:14;;;;;;;5.05;3.80;;;11.80;99.90;;;;;;5084067;28;20042;-32
2022/10/11 05:26:40;;;;;;;5.65;3.90;;;11.80;99.90;;;;;;5086376;28;20480;-30
2022/10/11 05:29:06;;;;;;;5.63;3.90;;;11.90;99.90;;;;;;5082872;28;20580;-31
2022/10/11 05:31:31;;;;;;;6.18;3.80;;;11.90;99.90;;;;;;5086285;28;20558;-30
2022/10/11 05:33:58;;;;;;;4.78;3.80;;;11.90;99.90;;;;;;5086696;28;20719;-34
2022/10/11 05:36:24;;;;;;;5.97;3.70;;;11.90;99.90;;;;;;5083784;28;20143;-32
2022/10/11 05:38:49;;;;;;;4.03;2.95;;;11.80;99.90;;;;;;5085777;28;20537;-30
2022/10/11 05:41:16;;;;;;;4.97;3.83;;;11.80;99.90;;;;;;5081794;28;20062;-34
2022/10/11 05:43:43;;;;;;;6.32;3.38;;;11.90;99.90;;;;;;5081811;28;20063;-30
2022/10/11 05:46:10;;;;;;;5.25;3.95;;;11.90;99.90;;;;;;5080143;28;20054;-31
2022/10/11 05:48:35;;;;;;;6.53;4.55;;;12.00;99.90;;;;;;5085484;28;20114;-32
2022/10/11 05:51:03;;;;;;;7.28;4.72;;;12.00;99.90;;;;;;5084791;28;20038;-34
2022/10/11 05:53:30;;;;;;;6.47;4.60;;;11.90;99.90;;;;;;5082454;28;20032;-31
2022/10/11 05:55:55;;;;;;;6.68;4.75;;;11.90;99.90;;;;;;5088048;28;20420;-30
2022/10/11 05:58:21;;;;;;;10.48;4.70;;;11.90;99.90;;;;;;5089027;28;20048;-31
2022/10/11 06:00:47;;;;;;;6.05;4.35;;;11.90;99.90;;;;;;5085725;28;20044;-34
2022/10/11 06:03:14;;;;;;;7.53;4.43;;;11.80;99.90;;;;;;5087847;28;20481;-30
2022/10/11 06:05:42;;;;;;;7.10;4.72;;;11.90;99.90;;;;;;5085950;28;20035;-30
2022/10/11 06:08:09;;;;;;;5.72;4.35;;;11.90;99.90;;;;;;5084508;28;20066;-33
2022/10/11 06:10:37;;;;;;;5.45;4.07;;;11.90;99.90;;;;;;5086336;28;20024;-31
2022/10/11 06:13:03;;;;;;;8.60;4.57;;;11.90;99.90;;;;;;5081712;28;20035;-30
2022/10/11 06:15:29;;;;;;;6.47;4.50;;;11.90;99.90;;;;;;5085469;28;20024;-33
2022/10/11 06:17:55;;;;;;;7.60;4.32;;;11.90;99.90;;;;;;5086281;28;20052;-34
2022/10/11 06:20:20;;;;;;;7.10;4.22;;;11.90;99.90;;;;;;5081980;28;20028;-30
2022/10/11 06:22:46;;;;;;;7.50;4.22;;;11.90;99.90;;;;;;5081849;28;20058;-30
2022/10/11 06:25:11;;;;;;;6.68;4.13;;;12.00;99.90;;;;;;5088193;28;20032;-30
2022/10/11 06:27:37;;;;;;;6.63;4.72;;;12.00;99.90;;;;;;5086390;28;20024;-35
2022/10/11 06:30:04;;;;;;;11.65;4.28;;;12.00;99.90;;;;;;5084081;28;20020;-33
2022/10/11 06:32:30;;;;;;;8.63;4.30;;;12.10;99.90;;;;;;5082441;28;20045;-31
2022/10/11 06:34:56;;;;;;;7.20;4.43;;;12.10;99.90;;;;;;5084545;28;20457;-30
2022/10/11 06:37:21;;;;;;;8.38;4.40;;;12.20;99.90;;;;;;5084663;28;20028;-34
2022/10/11 06:39:49;;;;;;;9.35;3.97;;;12.20;99.90;;;;;;5081918;28;20514;-31
2022/10/11 06:42:15;;;;;;;7.32;4.60;;;12.20;99.90;;;;;;5083282;28;20159;-32
2022/10/11 06:44:40;;;;;;;10.45;4.78;;;12.30;99.90;;;;;;5085154;28;20136;-30
2022/10/11 06:47:07;;;;;;;8.25;4.97;;;12.30;99.90;;;;;;5081861;28;20032;-33
2022/10/11 06:49:33;;;;;;;9.88;4.90;;;12.40;99.90;;;;;;5082136;28;20016;-31
2022/10/11 06:51:59;;;;;;;6.00;4.53;;;12.40;99.90;;;;;;5088349;28;20062;-31
2022/10/11 06:54:25;;;;;;;7.25;4.65;;;12.50;99.90;;;;;;5083264;28;20027;-35
2022/10/11 06:56:50;;;;;;;6.70;4.60;;;12.60;99.90;;;;;;5087406;28;20122;-32
2022/10/11 06:59:16;;;;;;;6.07;4.20;;;12.70;99.90;;;;;;5083919;28;20497;-33
2022/10/11 07:01:42;;;;;;;6.97;4.10;;;12.70;99.90;;;;;;5081992;28;20171;-30
2022/10/11 07:04:08;;;;;;;9.10;4.50;;;12.70;99.90;;;;;;5068640;28;20032;-30
2022/10/11 07:06:37;;;;;;;8.95;5.03;;;12.90;99.90;;;;;;5067886;28;20115;-29
2022/10/11 07:09:03;;;;;;;7.63;4.63;;;12.90;99.90;;;;;;5068726;28;20029;-32
2022/10/11 07:11:29;;;;;;;9.32;5.60;;;12.90;99.90;;;;;;5066734;28;20133;-31
2022/10/11 07:13:58;;;;;;;6.38;4.60;;;12.90;99.90;;;;;;5065704;28;20414;-30
2022/10/11 07:16:24;;;;;;;6.00;4.13;;;13.00;99.90;;;;;;5068330;28;20024;-30
2022/10/11 07:18:57;;;;;;;6.80;4.50;;;13.00;99.90;;;;;;5065507;28;20044;-29
2022/10/11 07:21:23;;;;;;;8.52;4.25;;;13.10;99.90;;;;;;5067728;28;20028;-30
2022/10/11 07:23:48;;;;;;;7.38;4.80;;;13.20;99.90;;;;;;5064793;28;20029;-30
2022/10/11 07:26:14;;;;;;;7.88;5.05;;;13.20;99.90;;;;;;5062903;28;20066;-32
2022/10/11 07:28:40;;;;;;;7.68;5.45;;;13.20;99.90;;;;;;5064598;28;20490;-29
2022/10/11 07:31:13;;;;;;;8.57;4.78;;;13.20;99.90;;;;;;5069692;28;20048;-29
2022/10/11 07:33:38;;;;;;;12.25;5.90;;;13.30;99.90;;;;;;5065165;28;20020;-31
2022/10/11 07:36:05;;;;;;;10.10;5.47;;;13.30;99.90;;;;;;5066607;28;20059;-31
2022/10/11 07:38:31;;;;;;;8.48;5.10;;;13.40;99.90;;;;;;5064097;28;20073;-29
2022/10/11 07:40:57;;;;;;;10.90;5.40;;;13.50;99.90;;;;;;5067142;28;20148;-30
2022/10/11 07:43:23;;;;;;;10.25;5.50;;;13.50;99.90;;;;;;5068512;28;20137;-30
2022/10/11 07:45:54;;;;;;;8.63;5.53;;;13.50;99.90;;;;;;5070614;28;20025;-32
2022/10/11 07:48:20;;;;;;;9.00;5.28;;;13.50;99.90;;;;;;5067256;28;20071;-31
2022/10/11 07:50:46;;;;;;;9.48;5.38;;;13.60;99.90;;;;;;5070542;28;20375;-31
2022/10/11 07:53:11;;;;;;;9.15;5.53;;;13.60;99.90;;;;;;5067656;28;20094;-31
2022/10/11 07:55:41;;;;;;;10.30;5.47;;;13.60;99.90;;;;;;5066065;28;20036;-31
2022/10/11 07:58:08;;;;;;;11.38;5.32;;;13.70;99.90;;;;;;5065959;28;20056;-29
2022/10/11 08:00:34;;;;;;;9.23;5.63;;;13.70;99.90;;;;;;5066985;28;20071;-30
2022/10/11 08:03:06;;;;;;;8.85;5.47;;;13.80;99.90;;;;;;5067296;28;20203;-29
2022/10/11 08:05:33;;;;;;;13.00;5.50;;;13.80;99.90;;;;;;5069596;28;20116;-29
2022/10/11 08:07:59;;;;;;;8.70;5.93;;;13.80;99.90;;;;;;5066251;28;20036;-29
2022/10/11 08:10:25;;;;;;;9.50;6.60;;;13.90;99.90;;;;;;5064928;28;20190;-30
2022/10/11 08:12:52;;;;;;;9.25;6.32;;;13.90;99.90;;;;;;5065275;28;20112;-28
2022/10/11 08:15:19;;;;;;;11.43;6.68;;;13.90;99.90;;;;;;5064906;28;20074;-30
2022/10/11 08:17:45;;;;;;;9.75;6.78;;;13.90;99.90;;;;;;5064550;28;20511;-30
2022/10/11 08:20:11;;;;;;;10.27;6.85;;;13.90;99.90;;;;;;5069750;28;20385;-30
2022/10/11 08:22:36;;;;;;;11.23;6.95;;;14.00;99.90;;;;;;5068569;28;20016;-30
2022/10/11 08:25:02;;;;;;;12.50;7.15;;;13.90;99.90;;;;;;5066001;28;20028;-35
2022/10/11 08:27:28;;;;;;;15.20;7.03;;;13.90;99.90;;;;;;5068446;28;20040;-29
2022/10/11 08:29:54;;;;;;;15.35;7.20;;;13.90;99.90;;;;;;5066635;28;20032;-30
2022/10/11 08:32:19;;;;;;;10.98;7.90;;;14.00;99.90;;;;;;5066860;28;20063;-32
2022/10/11 08:34:45;;;;;;;13.02;7.43;;;14.00;99.90;;;;;;5096052;28;20632;-30
2022/10/11 08:37:10;;;;;;;12.35;7.22;;;14.00;99.90;;;;;;5063855;28;20064;-30
2022/10/11 08:39:36;;;;;;;12.95;7.20;;;14.00;99.90;;;;;;5064783;28;20037;-30
2022/10/11 08:42:11;;;;;;;14.80;7.15;;;14.00;99.90;;;;;;5065702;28;20504;-30
2022/10/11 08:44:48;;;;;;;11.27;6.85;;;14.10;99.90;;;;;;5066179;28;20020;-30
2022/10/11 08:47:28;;;;;;;14.10;7.85;;;14.10;99.90;;;;;;5065123;28;20025;-31
2022/10/11 08:49:55;;;;;;;11.80;7.93;;;14.20;99.90;;;;;;5065054;28;20042;-32
2022/10/11 08:52:47;;;;;;;13.10;7.90;;;14.30;99.90;;;;;;5067290;28;20032;-33
2022/10/11 08:55:33;;;;;;;13.77;7.50;;;14.50;99.90;;;;;;5056809;28;20076;-30
2022/10/11 08:57:59;;;;;;;12.18;6.30;;;14.80;99.90;;;;;;5064743;28;20059;-32
2022/10/11 09:00:31;;;;;;;10.05;6.22;;;14.90;99.90;;;;;;5066145;28;20070;-31
2022/10/11 09:03:03;;;;;;;15.90;7.90;;;14.90;99.90;;;;;;5063354;28;20028;-31
2022/10/11 09:06:02;;;;;;;12.05;6.55;;;14.80;99.90;;;;;;5062774;28;20033;-32
2022/10/11 09:08:57;;;;;;;11.65;6.68;;;14.80;99.90;;;;;;5049201;28;20083;-29
2022/10/11 09:11:58;;;;;;;11.70;6.32;;;14.70;99.90;;;;;;5013612;28;20052;-30
2022/10/11 09:14:39;;;;;;;11.40;6.50;;;14.50;99.90;;;;;;5063844;28;20091;-30
2022/10/11 09:17:30;;;;;;;12.80;5.85;;;14.50;99.90;;;;;;5066076;28;20068;-31
2022/10/11 09:20:08;;;;;;;10.77;6.20;;;14.50;99.90;;;;;;5067841;28;20133;-33
2022/10/11 09:23:12;;;;;;;11.80;5.22;;;14.50;99.90;;;;;;5066984;28;20496;-31
2022/10/11 09:25:57;;;;;;;7.90;4.38;;;14.60;99.90;;;;;;5062791;28;20028;-29
2022/10/11 09:28:27;;;;;;;11.43;4.75;;;14.60;99.90;;;;;;5063897;28;20027;-33
2022/10/11 09:30:55;;;;;;;13.32;5.20;;;14.70;99.90;;;;;;5063689;28;20032;-29
2022/10/11 09:33:44;;;;;;;6.63;4.40;;;14.80;99.90;;;;;;5061985;28;20025;-30
2022/10/11 09:36:38;;;;;;;9.63;4.70;;;15.00;99.90;;;;;;5058846;28;20095;-35
2022/10/11 09:39:35;;;;;;;8.65;4.07;;;15.10;99.90;;;;;;5061403;28;20024;-36
2022/10/11 09:42:04;;;;;;;9.10;5.07;;;15.30;99.90;;;;;;5057949;28;20024;-30
2022/10/11 09:44:48;;;;;;;10.63;4.30;;;15.30;99.90;;;;;;5061588;28;20036;-31
2022/10/11 09:47:18;;;;;;;7.15;3.92;;;15.20;99.90;;;;;;5067027;28;20409;-30
2022/10/11 09:50:25;;;;;;;8.52;4.85;;;15.20;99.90;;;;;;5069420;28;20103;-31
2022/10/11 09:52:53;;;;;;;8.55;4.72;;;15.20;99.90;;;;;;5066025;28;20056;-32
2022/10/11 09:55:35;;;;;;;9.68;4.78;;;15.10;99.90;;;;;;5067468;28;20429;-31
2022/10/11 09:58:05;;;;;;;9.32;4.70;;;15.20;99.90;;;;;;5066325;28;20040;-30
2022/10/11 10:00:32;;;;;;;10.25;4.55;;;15.20;99.90;;;;;;5063320;28;20029;-32
2022/10/11 10:03:01;;;;;;;8.25;5.10;;;15.30;99.90;;;;;;5064378;28;20049;-32
2022/10/11 10:05:34;;;;;;;7.75;5.25;;;15.40;99.90;;;;;;5066801;28;20040;-30
2022/10/11 10:08:21;;;;;;;10.23;5.30;;;15.40;99.90;;;;;;5067579;28;20378;-31
2022/10/11 10:11:06;;;;;;;9.13;5.05;;;15.30;99.90;;;;;;5066406;28;20032;-31
2022/10/11 10:13:34;;;;;;;9.32;5.05;;;15.40;99.90;;;;;;5069362;28;20524;-29
2022/10/11 10:16:00;;;;;;;10.63;4.68;;;15.50;99.90;;;;;;5067959;28;20048;-31
2022/10/11 10:19:00;;;;;;;10.85;4.55;;;15.60;99.90;;;;;;5065811;28;20040;-29
2022/10/11 10:21:47;;;;;;;7.07;4.40;;;15.50;99.90;;;;;;5059691;28;20732;-30
2022/10/11 10:24:34;;;;;;;6.25;3.80;;;15.50;99.90;;;;;;5066103;28;20454;-30
2022/10/11 10:27:21;;;;;;;4.07;3.10;;;15.50;99.90;;;;;;5066562;28;20066;-30
2022/10/11 10:30:00;;;;;;;6.90;4.03;;;15.60;99.90;;;;;;5065168;28;20024;-30
2022/10/11 10:32:34;;;;;;;5.72;3.72;;;15.70;99.90;;;;;;5064229;28;20118;-29
2022/10/11 10:35:20;;;;;;;10.30;4.25;;;15.80;99.90;;;;;;5070005;28;20032;-30
2022/10/11 10:38:11;;;;;;;7.78;3.33;;;15.90;99.90;;;;;;5071029;28;20469;-29
2022/10/11 10:40:42;;;;;;;4.55;3.28;;;15.90;99.90;;;;;;5072176;28;20041;-30
2022/10/11 10:43:14;;;;;;;6.95;3.40;;;16.00;99.90;;;;;;5077042;28;20016;-31
2022/10/11 10:46:04;;;;;;;15.57;5.38;;;16.00;99.90;;;;;;5073245;28;20039;-29
2022/10/11 10:49:07;;;;;;;10.70;5.82;;;16.00;99.90;;;;;;5070414;28;20021;-31
2022/10/11 10:52:04;;;;;;;12.00;6.03;;;15.80;99.90;;;;;;5069445;28;20108;-32
2022/10/11 10:54:55;;;;;;;6.80;5.03;;;15.80;99.90;;;;;;5070243;28;20526;-30
2022/10/11 10:58:12;;;;;;;10.02;6.00;;;15.80;99.90;;;;;;5077822;28;20035;-30
2022/10/11 11:00:43;;;;;;;7.40;5.70;;;15.70;99.90;;;;;;5048126;28;20074;-29
2022/10/11 11:03:26;;;;;;;10.02;5.30;;;15.70;99.90;;;;;;5072453;28;20074;-30
2022/10/11 11:06:00;;;;;;;8.30;5.55;;;15.70;99.90;;;;;;5069090;28;20139;-30
2022/10/11 11:08:48;;;;;;;6.38;5.18;;;15.70;99.90;;;;;;5071086;28;20404;-31
2022/10/11 11:11:28;;;;;;;7.93;5.50;;;15.80;99.90;;;;;;5067209;28;20024;-30
2022/10/11 11:14:26;;;;;;;12.20;5.60;;;15.80;99.90;;;;;;5067738;28;20278;-31
2022/10/11 11:17:00;;;;;;;;;;;15.90;99.90;;;;;;5067662;28;20114;-29
2022/10/11 11:19:35;;;;;;;11.63;5.50;;;15.90;99.90;;;;;;5066328;28;20263;-30
2022/10/11 11:22:04;;;;;;;8.57;5.50;;;16.00;99.90;;;;;;5070330;28;20148;-34
2022/10/11 11:24:45;;;;;;;8.98;5.90;;;16.00;99.90;;;;;;5085823;28;20021;-31
2022/10/11 11:27:37;;;;;;;13.05;6.75;;;16.00;99.90;;;;;;5068702;28;20032;-33
2022/10/11 11:30:03;;;;;;;9.98;5.63;;;15.90;99.90;;;;;;5064954;28;20024;-31
2022/10/11 11:32:51;;;;;;;9.70;5.60;;;15.90;99.90;;;;;;5069045;28;20036;-29
2022/10/11 11:35:29;;;;;;;8.50;5.18;;;15.80;99.90;;;;;;5064874;28;20149;-33
2022/10/11 11:38:02;;;;;;;10.45;5.60;;;15.90;99.90;;;;;;5070135;28;20032;-34
2022/10/11 11:40:51;;;;;;;8.38;5.30;;;16.00;99.90;;;;;;5069663;28;20468;-34
2022/10/11 11:43:16;;;;;;;;;;;16.00;99.90;;;;;;5065485;28;20541;-30
2022/10/11 11:45:52;;;;;;;7.80;4.97;;;16.00;99.90;;;;;;5069455;28;20002;-33
2022/10/11 11:48:23;;;;;;;7.00;4.93;;;15.90;99.90;;;;;;5072272;28;20355;-31
2022/10/11 11:51:07;;;;;;;12.80;5.13;;;15.90;99.90;;;;;;5077021;28;20031;-30
2022/10/11 11:53:42;;;;;;;8.43;4.75;;;15.90;99.90;;;;;;5075224;28;20105;-29
2022/10/11 11:56:16;;;;;;;8.38;4.97;;;15.90;99.90;;;;;;5076094;28;20027;-29
2022/10/11 11:58:52;;;;;;;10.82;5.28;;;15.90;99.90;;;;;;5067741;28;20052;-31
2022/10/11 12:01:28;;;;;;;7.30;4.32;;;15.90;99.90;;;;;;5065812;28;20040;-30
2022/10/11 12:04:00;;;;;;;8.52;5.18;;;15.90;99.90;;;;;;5073632;28;20579;-29
2022/10/11 12:06:31;;;;;;;6.40;4.20;;;15.90;99.90;;;;;;5071844;28;20051;-32
2022/10/11 12:09:00;;;;;;;8.98;4.40;;;16.00;99.90;;;;;;5071149;28;20024;-30
2022/10/11 12:11:37;;;;;;;8.15;4.60;;;15.90;99.90;;;;;;5069718;28;20046;-31
2022/10/11 12:14:26;;;;;;;8.68;4.20;;;15.90;99.90;;;;;;5068778;28;20029;-30
2022/10/11 12:17:12;;;;;;;9.45;4.30;;;15.90;99.90;;;;;;5069301;28;20421;-31
2022/10/11 12:19:41;;;;;;;7.05;4.10;;;15.80;99.90;;;;;;5067973;28;20021;-29
2022/10/11 12:22:16;;;;;;;6.13;3.60;;;15.80;99.90;;;;;;5070743;28;20025;-29
2022/10/11 12:24:55;;;;;;;6.30;3.65;;;15.80;99.90;;;;;;5072781;28;20037;-33
2022/10/11 12:27:48;;;;;;;7.50;3.78;;;15.70;99.90;;;;;;5073274;28;20024;-30
2022/10/11 12:30:41;;;;;;;7.53;3.67;;;15.80;99.90;;;;;;5067876;28;20031;-30
2022/10/11 12:33:44;;;;;;;8.45;3.58;;;16.00;99.90;;;;;;5065776;28;20604;-30
2022/10/11 12:36:47;;;;;;;7.00;3.72;;;16.00;99.90;;;;;;5066312;28;20025;-30
2022/10/11 12:39:18;;;;;;;6.18;3.50;;;16.10;99.90;;;;;;5050645;28;20029;-31
2022/10/11 12:41:50;;;;;;;4.47;3.20;;;16.10;99.90;;;;;;5063652;28;20063;-29
2022/10/11 12:44:22;;;;;;;6.18;3.22;;;16.10;99.90;;;;;;5072302;28;20024;-31
2022/10/11 12:46:54;;;;;;;6.95;3.65;;;16.10;99.90;;;;;;5070637;28;20113;-30
2022/10/11 12:49:29;;;;;;;6.10;3.20;;;16.10;99.90;;;;;;5066009;28;20043;-33
2022/10/11 12:52:04;;;;;;;5.88;3.55;;;16.10;99.90;;;;;;5069173;28;20060;-30
2022/10/11 12:55:22;;;;;;;8.00;3.95;;;16.10;99.90;;;;;;5070908;28;20516;-30
2022/10/11 12:58:18;;;;;;;10.30;4.25;;;16.20;99.90;;;;;;5032090;28;20051;-32
2022/10/11 13:00:49;;;;;;;7.63;3.70;;;16.30;99.90;;;;;;5069306;28;20086;-29
2022/10/11 13:03:33;;;;;;;6.18;4.05;;;16.20;99.90;;;;;;5084206;28;20020;-30
2022/10/11 13:05:59;;;;;;;7.18;3.72;;;16.30;99.90;;;;;;5087082;28;20062;-29
2022/10/11 13:08:26;;;;;;;8.95;3.85;;;16.40;99.90;;;;;;5084938;28;20059;-32
2022/10/11 13:10:54;;;;;;;7.57;3.80;;;16.40;99.90;;;;;;5083741;28;20031;-32